Time;durP1;ratioP1;P1;durP2;ratioP2;P2;SDS_P1;SDS_P2;PMS_P1;PMS_P2;Temp;Humidity;BMP_temperature;BMP_pressure;BME280_temperature;BME280_humidity;BME280_pressure;Samples;Min_cycle;Max_cycle;Signal;HPM_P1;HPM_P2
2021/10/02 00:45:07;;;;;;;4.22;1.30;;;13.90;99.90;;;;;;12514516;28;20128;-37
2021/10/02 00:51:08;;;;;;;6.25;1.83;;;13.80;99.90;;;;;;12510243;28;20457;-35
2021/10/02 00:57:11;;;;;;;3.47;1.38;;;13.70;99.90;;;;;;12508773;28;20049;-35
2021/10/02 01:03:24;;;;;;;5.38;1.40;;;13.70;99.90;;;;;;12512241;28;20091;-35
2021/10/02 01:10:08;;;;;;;3.73;1.73;;;13.50;99.90;;;;;;12510209;28;20057;-35
2021/10/02 01:16:32;;;;;;;5.00;1.77;;;13.20;99.90;;;;;;12511567;28;20049;-35
2021/10/02 01:22:52;;;;;;;5.40;1.77;;;13.00;99.90;;;;;;12508958;28;20126;-35
2021/10/02 01:28:58;;;;;;;4.43;1.83;;;12.90;99.90;;;;;;12504110;28;20114;-35
2021/10/02 01:35:12;;;;;;;4.88;2.30;;;12.70;99.90;;;;;;12512826;28;20053;-40
2021/10/02 01:47:40;;;;;;;5.32;2.58;;;12.60;99.90;;;;;;12505360;28;20049;-39
2021/10/02 01:53:44;;;;;;;7.55;3.30;;;12.60;99.90;;;;;;12510127;28;20736;-40
2021/10/02 01:59:46;;;;;;;8.98;3.30;;;12.60;99.90;;;;;;12502444;28;20037;-35
2021/10/02 02:05:49;;;;;;;4.85;3.05;;;12.50;99.90;;;;;;12508828;28;20529;-40
2021/10/02 02:11:52;;;;;;;6.40;3.55;;;12.50;99.90;;;;;;12493969;28;20046;-40
2021/10/02 02:18:00;;;;;;;7.10;4.15;;;12.50;99.90;;;;;;12458296;28;20900;-35
2021/10/02 02:24:02;;;;;;;6.88;4.40;;;12.50;99.90;;;;;;12498801;28;20561;-39
2021/10/02 02:30:04;;;;;;;8.38;4.03;;;12.60;99.90;;;;;;12513902;28;20095;-40
2021/10/02 02:36:06;;;;;;;6.93;3.92;;;12.60;99.90;;;;;;12519124;28;20053;-35
2021/10/02 02:42:08;;;;;;;6.65;4.45;;;12.60;99.90;;;;;;12501271;28;20045;-39
2021/10/02 02:48:18;;;;;;;7.53;4.40;;;12.60;99.90;;;;;;12468218;28;20053;-35
2021/10/02 02:54:36;;;;;;;8.48;4.70;;;12.50;99.90;;;;;;12503392;28;20135;-36
2021/10/02 03:00:53;;;;;;;9.10;4.20;;;12.40;99.90;;;;;;12512095;28;20049;-39
2021/10/02 03:06:57;;;;;;;8.15;3.78;;;12.30;99.90;;;;;;12469391;28;20479;-35
2021/10/02 03:13:11;;;;;;;5.82;3.50;;;12.20;99.90;;;;;;12468789;28;20466;-35
2021/10/02 03:19:14;;;;;;;8.60;3.93;;;12.10;99.90;;;;;;12469347;28;20126;-35
2021/10/02 03:25:17;;;;;;;4.68;2.95;;;12.20;99.90;;;;;;12462049;28;20046;-40
2021/10/02 03:31:19;;;;;;;6.78;3.17;;;12.10;99.90;;;;;;12466411;28;20453;-40
2021/10/02 03:37:22;;;;;;;5.22;3.40;;;12.10;99.90;;;;;;12464756;28;20046;-35
2021/10/02 03:43:30;;;;;;;7.18;3.47;;;12.10;99.90;;;;;;12492322;28;20102;-39
2021/10/02 03:49:31;;;;;;;4.97;2.90;;;12.10;99.90;;;;;;12512742;28;20057;-39
2021/10/02 03:55:33;;;;;;;5.07;2.65;;;12.10;99.90;;;;;;12472511;28;20057;-35
2021/10/02 04:01:35;;;;;;;3.50;2.47;;;12.10;99.90;;;;;;12478933;28;20472;-36
2021/10/02 04:07:37;;;;;;;3.33;2.47;;;12.00;99.90;;;;;;12512216;28;20151;-35
2021/10/02 04:13:40;;;;;;;5.47;2.22;;;12.10;99.90;;;;;;12483278;28;20087;-36
2021/10/02 04:19:43;;;;;;;4.20;2.13;;;12.10;99.90;;;;;;12466348;28;20057;-36
2021/10/02 04:25:44;;;;;;;3.42;2.47;;;12.10;99.90;;;;;;12464003;28;20051;-35
2021/10/02 04:31:46;;;;;;;3.88;2.47;;;12.20;99.90;;;;;;12477955;28;20049;-39
2021/10/02 04:37:48;;;;;;;3.20;2.60;;;12.20;99.90;;;;;;12511682;28;20049;-35
2021/10/02 04:43:51;;;;;;;5.32;3.15;;;12.20;99.90;;;;;;12467823;28;20112;-35
2021/10/02 04:49:53;;;;;;;3.60;2.60;;;12.30;99.90;;;;;;12448206;28;20057;-41
2021/10/02 04:55:58;;;;;;;6.45;3.10;;;12.20;99.90;;;;;;12463508;28;20065;-39
2021/10/02 05:02:00;;;;;;;4.38;2.80;;;12.30;99.90;;;;;;12462203;28;20103;-35
2021/10/02 05:08:02;;;;;;;9.40;3.00;;;12.30;99.90;;;;;;12465760;28;20056;-35
2021/10/02 05:14:04;;;;;;;5.53;3.75;;;12.30;99.90;;;;;;12494599;28;20048;-40
2021/10/02 05:20:06;;;;;;;6.28;3.90;;;12.30;99.90;;;;;;12509117;28;20094;-36
2021/10/02 05:26:09;;;;;;;5.35;4.22;;;12.30;99.90;;;;;;12511397;28;20743;-40
2021/10/02 05:32:11;;;;;;;6.45;5.00;;;12.30;99.90;;;;;;12504642;28;20060;-35
2021/10/02 05:38:14;;;;;;;6.07;4.88;;;12.40;99.90;;;;;;12512912;28;20099;-41
2021/10/02 05:44:15;;;;;;;8.35;4.82;;;12.30;99.90;;;;;;12509151;28;20045;-39
2021/10/02 05:50:17;;;;;;;9.13;5.13;;;12.40;99.90;;;;;;12512137;28;20048;-40
2021/10/02 05:56:19;;;;;;;6.15;4.72;;;12.40;99.90;;;;;;12515137;28;20052;-41
2021/10/02 06:02:21;;;;;;;7.15;5.15;;;12.40;99.90;;;;;;12520262;28;20053;-40
2021/10/02 06:08:23;;;;;;;6.63;4.55;;;12.40;99.90;;;;;;12520229;28;20045;-41
2021/10/02 06:14:25;;;;;;;6.57;4.15;;;12.50;99.90;;;;;;12520637;28;20053;-39
2021/10/02 06:20:27;;;;;;;6.20;4.18;;;12.50;99.90;;;;;;12519010;28;20044;-35
2021/10/02 06:26:31;;;;;;;5.85;4.30;;;12.60;99.90;;;;;;12517276;28;20423;-35
2021/10/02 06:32:33;;;;;;;5.93;4.00;;;12.60;99.90;;;;;;12520226;28;20222;-35
2021/10/02 06:38:35;;;;;;;6.05;3.90;;;12.60;99.90;;;;;;12519089;28;20067;-35
2021/10/02 06:44:37;;;;;;;5.28;4.20;;;12.60;99.90;;;;;;12519060;28;20045;-38
2021/10/02 06:50:39;;;;;;;6.75;4.53;;;12.60;99.90;;;;;;12517726;28;20098;-41
2021/10/02 06:56:41;;;;;;;6.40;4.30;;;12.70;99.90;;;;;;12514827;28;20056;-35
2021/10/02 07:02:45;;;;;;;5.97;3.90;;;12.70;99.90;;;;;;12511905;28;20045;-35
2021/10/02 07:08:47;;;;;;;5.80;3.87;;;12.80;99.90;;;;;;12511225;28;20126;-41
2021/10/02 07:14:48;;;;;;;5.30;4.10;;;12.80;99.90;;;;;;12512551;28;20053;-39
2021/10/02 07:20:50;;;;;;;7.13;3.90;;;12.80;99.90;;;;;;12512346;28;20072;-40
2021/10/02 07:26:52;;;;;;;6.57;3.60;;;12.80;99.90;;;;;;12514768;28;20056;-41
2021/10/02 07:32:54;;;;;;;5.57;3.60;;;12.80;99.90;;;;;;12511133;28;20061;-37
2021/10/02 07:38:56;;;;;;;6.50;3.65;;;12.80;99.90;;;;;;12511483;28;20041;-40
2021/10/02 07:45:04;;;;;;;7.07;3.95;;;12.90;99.90;;;;;;12512120;28;20102;-35
2021/10/02 07:51:07;;;;;;;8.77;3.88;;;13.00;99.90;;;;;;12512998;28;20041;-39
2021/10/02 07:57:09;;;;;;;6.93;3.90;;;13.00;99.90;;;;;;12509623;28;20088;-36
2021/10/02 08:03:11;;;;;;;6.22;3.20;;;13.10;99.90;;;;;;12512329;28;20429;-40
2021/10/02 08:09:13;;;;;;;6.85;2.78;;;13.10;99.90;;;;;;12510839;28;20146;-35
2021/10/02 08:15:17;;;;;;;6.28;3.08;;;13.10;99.90;;;;;;12511190;28;20102;-40
2021/10/02 08:21:19;;;;;;;6.50;2.72;;;13.10;99.90;;;;;;12511215;28;20091;-39
2021/10/02 08:27:21;;;;;;;5.80;2.78;;;13.00;99.90;;;;;;12513562;28;20487;-36
2021/10/02 08:33:23;;;;;;;4.60;2.83;;;13.00;99.90;;;;;;12512068;28;20049;-36
2021/10/02 08:39:25;;;;;;;5.35;3.20;;;13.00;99.90;;;;;;12515178;28;20868;-39
2021/10/02 08:45:31;;;;;;;8.07;2.88;;;13.10;99.90;;;;;;12513253;28;20045;-36
2021/10/02 08:51:36;;;;;;;3.42;2.72;;;13.10;99.90;;;;;;12512295;28;20128;-36
2021/10/02 08:57:39;;;;;;;4.32;2.90;;;13.10;99.90;;;;;;12511081;28;20053;-37
2021/10/02 09:03:41;;;;;;;4.00;2.65;;;13.30;99.90;;;;;;12511643;28;20107;-41
2021/10/02 09:09:44;;;;;;;3.17;2.25;;;13.40;99.90;;;;;;12512926;28;20056;-36
2021/10/02 09:15:46;;;;;;;4.32;2.30;;;13.40;99.90;;;;;;12511811;28;20575;-35
2021/10/02 09:22:01;;;;;;;4.50;2.53;;;13.40;99.90;;;;;;12510971;28;20056;-35
2021/10/02 09:28:04;;;;;;;3.42;1.90;;;13.30;99.90;;;;;;12509817;28;20053;-40
2021/10/02 09:34:05;;;;;;;3.88;1.98;;;13.40;99.90;;;;;;12510420;28;20083;-36
2021/10/02 09:40:11;;;;;;;3.67;1.40;;;13.40;99.90;;;;;;12510639;28;20548;-35
2021/10/02 09:46:13;;;;;;;2.88;1.52;;;13.40;99.90;;;;;;12512533;28;20049;-35
2021/10/02 09:52:35;;;;;;;4.32;1.52;;;13.40;99.90;;;;;;12509733;28;20045;-36
2021/10/02 09:58:38;;;;;;;3.45;1.80;;;13.40;99.90;;;;;;12508907;28;20091;-39
2021/10/02 10:04:55;;;;;;;4.87;2.37;;;13.50;99.90;;;;;;12509133;28;20055;-40
2021/10/02 10:11:11;;;;;;;4.65;2.38;;;13.50;99.90;;;;;;12510420;28;20135;-41
2021/10/02 10:17:15;;;;;;;4.93;2.60;;;13.60;99.90;;;;;;12510318;28;20056;-41
2021/10/02 10:23:31;;;;;;;2.93;2.17;;;13.90;99.90;;;;;;12508200;28;20096;-41
2021/10/02 10:29:41;;;;;;;3.35;2.28;;;13.90;99.90;;;;;;12507002;28;20053;-40
2021/10/02 10:35:49;;;;;;;3.95;2.47;;;14.00;99.90;;;;;;12507972;28;20049;-40
2021/10/02 10:41:52;;;;;;;6.18;2.60;;;14.00;99.90;;;;;;12506693;28;20053;-35
2021/10/02 10:47:57;;;;;;;4.90;2.70;;;13.90;99.90;;;;;;12515357;28;20053;-42
2021/10/02 10:53:59;;;;;;;5.70;3.15;;;14.00;99.90;;;;;;12515368;28;20078;-40
2021/10/02 11:00:08;;;;;;;5.72;2.67;;;14.20;99.90;;;;;;12516759;28;20110;-41
2021/10/02 11:06:14;;;;;;;4.47;2.25;;;14.20;99.90;;;;;;12514777;28;20104;-36
2021/10/02 11:12:17;;;;;;;5.85;2.58;;;14.30;99.90;;;;;;12515068;28;20532;-36
2021/10/02 11:18:45;;;;;;;4.13;2.25;;;14.50;99.90;;;;;;12514485;28;20102;-40
2021/10/02 11:24:49;;;;;;;5.07;2.30;;;14.50;99.90;;;;;;12516009;28;20045;-35
2021/10/02 11:30:54;;;;;;;5.35;2.20;;;14.50;99.90;;;;;;12516379;28;20049;-40
2021/10/02 11:36:56;;;;;;;3.97;2.00;;;14.50;99.90;;;;;;12516053;28;20053;-40
2021/10/02 11:43:13;;;;;;;4.50;2.53;;;14.60;99.90;;;;;;12516393;28;20103;-39
2021/10/02 11:49:18;;;;;;;3.72;2.22;;;14.80;99.90;;;;;;12514845;28;20626;-35
2021/10/02 11:55:35;;;;;;;5.65;2.42;;;14.80;99.90;;;;;;12507358;28;20776;-35
2021/10/02 12:01:42;;;;;;;3.60;2.20;;;14.80;99.90;;;;;;12515451;28;20468;-36
2021/10/02 12:07:46;;;;;;;3.63;2.00;;;14.70;99.90;;;;;;12510740;28;20050;-36
2021/10/02 12:13:51;;;;;;;3.83;2.15;;;14.60;99.90;;;;;;12517191;28;20049;-40
2021/10/02 12:19:52;;;;;;;5.50;2.30;;;14.70;99.90;;;;;;12513954;28;20647;-41
2021/10/02 12:26:02;;;;;;;5.00;2.25;;;14.70;99.90;;;;;;12509691;28;20075;-37
2021/10/02 12:32:09;;;;;;;4.05;2.10;;;14.90;99.90;;;;;;12510466;28;20041;-36
2021/10/02 12:38:11;;;;;;;5.18;2.30;;;15.00;99.90;;;;;;12511459;28;20052;-40
2021/10/02 12:44:25;;;;;;;3.80;1.98;;;14.90;99.90;;;;;;12510421;28;20060;-37
2021/10/02 12:50:29;;;;;;;5.20;2.13;;;14.90;99.90;;;;;;12511931;28;20049;-37
2021/10/02 12:56:31;;;;;;;3.63;1.75;;;14.90;99.90;;;;;;12512243;28;20061;-36
2021/10/02 13:02:39;;;;;;;4.93;2.28;;;14.90;99.90;;;;;;12510271;28;20079;-40
2021/10/02 13:08:41;;;;;;;4.30;2.00;;;14.90;99.90;;;;;;12513329;28;20923;-40
2021/10/02 13:14:46;;;;;;;4.85;2.10;;;14.90;99.90;;;;;;12512876;28;20053;-36
2021/10/02 13:20:47;;;;;;;3.65;1.90;;;15.00;99.90;;;;;;12513865;28;20762;-38
2021/10/02 13:26:49;;;;;;;3.65;2.20;;;14.90;99.90;;;;;;12512753;28;20107;-43
2021/10/02 13:33:07;;;;;;;4.07;1.88;;;15.20;99.90;;;;;;12508377;28;20079;-37
2021/10/02 13:39:18;;;;;;;2.92;1.63;;;15.30;99.90;;;;;;12512089;28;20053;-42
2021/10/02 13:45:28;;;;;;;4.47;2.50;;;15.10;99.90;;;;;;12505299;28;20057;-36
2021/10/02 13:51:30;;;;;;;4.13;2.30;;;15.10;99.90;;;;;;12512786;28;20092;-35
2021/10/02 13:57:34;;;;;;;4.20;1.80;;;15.30;99.90;;;;;;12511860;28;20057;-41
2021/10/02 14:03:36;;;;;;;3.65;2.03;;;15.50;99.90;;;;;;12511351;28;20068;-40
2021/10/02 14:09:38;;;;;;;4.45;1.88;;;15.50;99.90;;;;;;12509307;28;20045;-40
2021/10/02 14:15:40;;;;;;;3.70;2.05;;;15.40;99.90;;;;;;12517108;28;20057;-40
2021/10/02 14:21:42;;;;;;;3.55;1.60;;;15.60;99.90;;;;;;12518851;28;20606;-36
2021/10/02 14:27:44;;;;;;;4.47;1.60;;;15.60;99.90;;;;;;12519905;28;20073;-40
2021/10/02 14:33:47;;;;;;;2.13;1.15;;;15.50;99.90;;;;;;12519978;28;20053;-36
2021/10/02 14:39:51;;;;;;;2.53;1.50;;;15.50;99.90;;;;;;12519741;28;20542;-40
2021/10/02 14:45:56;;;;;;;3.08;1.95;;;15.50;99.90;;;;;;12517843;28;20088;-41
2021/10/02 14:52:01;;;;;;;3.15;1.70;;;15.40;99.90;;;;;;12517555;28;20073;-36
2021/10/02 14:58:04;;;;;;;2.72;1.60;;;15.50;99.90;;;;;;12519420;28;20091;-36
2021/10/02 15:04:09;;;;;;;3.95;1.45;;;15.70;99.90;;;;;;12519793;28;20048;-40
2021/10/02 15:10:12;;;;;;;3.20;1.70;;;15.70;99.90;;;;;;12521310;28;20147;-40
2021/10/02 15:16:14;;;;;;;2.93;1.37;;;15.90;99.90;;;;;;12518167;28;20092;-40
2021/10/02 15:22:18;;;;;;;4.50;1.50;;;15.90;99.90;;;;;;12516527;28;20053;-41
2021/10/02 15:28:22;;;;;;;4.97;1.67;;;15.80;99.90;;;;;;12514712;28;20049;-40
2021/10/02 15:34:24;;;;;;;;;;;15.70;99.90;;;;;;12517112;28;20045;-40
2021/10/02 15:40:26;;;;;;;4.28;1.63;;;15.70;99.90;;;;;;12516102;28;19925;-36
2021/10/02 15:46:29;;;;;;;6.68;1.95;;;15.60;99.90;;;;;;12512951;28;20113;-40
2021/10/02 15:52:32;;;;;;;5.20;2.00;;;15.60;99.90;;;;;;12514333;28;20395;-40
2021/10/02 15:58:50;;;;;;;5.63;2.10;;;15.60;99.90;;;;;;12516371;28;20049;-36
2021/10/02 16:05:01;;;;;;;5.80;2.15;;;15.60;99.90;;;;;;12512045;28;20101;-40
2021/10/02 16:11:03;;;;;;;6.22;2.03;;;15.50;99.90;;;;;;12515488;28;20242;-38
2021/10/02 16:17:08;;;;;;;4.75;1.70;;;15.50;99.90;;;;;;12513759;28;20045;-43
2021/10/02 16:23:12;;;;;;;4.15;1.60;;;15.50;99.90;;;;;;12513275;28;20557;-36
2021/10/02 16:29:14;;;;;;;5.57;2.55;;;15.60;99.90;;;;;;12513995;28;20085;-41
2021/10/02 16:35:16;;;;;;;5.97;1.80;;;15.50;99.90;;;;;;12514579;28;20461;-36
2021/10/02 16:41:18;;;;;;;3.83;1.90;;;15.50;99.90;;;;;;12513050;28;20573;-39
2021/10/02 16:47:20;;;;;;;6.75;2.20;;;15.50;99.90;;;;;;12512793;28;20111;-42
2021/10/02 16:53:23;;;;;;;4.53;1.70;;;15.50;99.90;;;;;;12513826;28;20618;-41
2021/10/02 16:59:24;;;;;;;5.53;2.10;;;15.40;99.90;;;;;;12514974;28;20052;-40
2021/10/02 17:05:26;;;;;;;5.43;1.70;;;15.50;99.90;;;;;;12510149;28;20041;-40
2021/10/02 17:11:28;;;;;;;5.18;1.80;;;15.50;99.90;;;;;;12511941;28;20098;-39
2021/10/02 17:17:30;;;;;;;3.97;1.58;;;15.50;99.90;;;;;;12509959;28;20103;-36
2021/10/02 17:23:32;;;;;;;3.00;1.45;;;15.50;99.90;;;;;;12509193;28;20172;-40
2021/10/02 17:29:33;;;;;;;3.25;1.42;;;15.60;99.90;;;;;;12512588;28;20111;-36
2021/10/02 17:35:35;;;;;;;5.95;2.35;;;15.80;99.90;;;;;;12509632;28;20048;-37
2021/10/02 17:41:37;;;;;;;3.28;1.77;;;15.80;99.90;;;;;;12507234;28;20056;-41
2021/10/02 17:47:40;;;;;;;5.28;1.60;;;15.90;99.90;;;;;;12508426;28;20548;-36
2021/10/02 17:53:43;;;;;;;3.75;1.73;;;15.90;99.90;;;;;;12519988;28;21878;-36
2021/10/02 17:59:45;;;;;;;4.57;1.63;;;15.90;99.90;;;;;;12521470;28;20049;-43
2021/10/02 18:05:47;;;;;;;3.55;1.67;;;16.00;99.90;;;;;;12521404;28;20045;-36
2021/10/02 18:11:50;;;;;;;3.53;1.50;;;16.00;99.90;;;;;;12519577;28;20106;-36
2021/10/02 18:17:52;;;;;;;2.50;1.17;;;16.00;99.90;;;;;;12521643;28;20056;-42
2021/10/02 18:23:55;;;;;;;2.50;1.30;;;16.00;99.90;;;;;;12520753;28;20057;-41
2021/10/02 18:29:57;;;;;;;4.67;1.40;;;16.10;99.90;;;;;;12520866;28;20044;-41
2021/10/02 18:36:00;;;;;;;4.13;1.25;;;16.10;99.90;;;;;;12518461;28;20465;-36
2021/10/02 18:42:02;;;;;;;3.15;1.60;;;16.10;99.90;;;;;;12520651;28;20061;-40
2021/10/02 18:48:10;;;;;;;3.17;1.38;;;16.10;99.90;;;;;;12524921;28;20049;-40
2021/10/02 18:54:12;;;;;;;4.68;1.55;;;16.20;99.90;;;;;;12520254;28;20155;-41
2021/10/02 19:00:17;;;;;;;4.07;1.65;;;16.10;99.90;;;;;;12518782;28;20051;-37
2021/10/02 19:06:20;;;;;;;4.50;1.40;;;16.10;99.90;;;;;;12517118;28;20044;-37
2021/10/02 19:12:22;;;;;;;3.45;1.40;;;16.20;99.90;;;;;;12512835;28;20070;-40
2021/10/02 19:18:24;;;;;;;3.67;1.60;;;16.20;99.90;;;;;;12517711;28;20422;-36
2021/10/02 19:24:25;;;;;;;2.33;1.30;;;16.20;99.90;;;;;;12516008;28;20103;-41
2021/10/02 19:30:27;;;;;;;2.75;1.27;;;16.30;99.90;;;;;;12517494;28;20099;-38
2021/10/02 19:36:30;;;;;;;3.70;1.60;;;16.30;99.90;;;;;;12517567;28;20037;-36
2021/10/02 19:42:32;;;;;;;4.47;1.50;;;16.30;99.90;;;;;;12513415;28;20065;-37
2021/10/02 19:48:35;;;;;;;4.40;1.50;;;16.30;99.90;;;;;;12517838;28;20123;-40
2021/10/02 19:54:37;;;;;;;3.40;1.57;;;16.20;99.90;;;;;;12516680;28;20098;-36
2021/10/02 20:00:39;;;;;;;3.40;1.50;;;16.20;99.90;;;;;;12513445;28;20049;-40
2021/10/02 20:06:41;;;;;;;6.07;2.00;;;16.20;99.90;;;;;;12515722;28;20056;-40
2021/10/02 20:12:43;;;;;;;3.28;1.67;;;16.10;99.90;;;;;;12514752;28;20045;-40
2021/10/02 20:18:45;;;;;;;5.25;1.50;;;16.10;99.90;;;;;;12515120;28;20052;-40
2021/10/02 20:24:47;;;;;;;4.60;1.90;;;16.10;99.90;;;;;;12513194;28;20053;-36
2021/10/02 20:30:51;;;;;;;4.63;2.00;;;16.10;99.90;;;;;;12513858;28;20490;-40
2021/10/02 20:36:53;;;;;;;3.65;2.00;;;16.20;99.90;;;;;;12515260;28;20099;-36
2021/10/02 20:42:55;;;;;;;3.15;1.80;;;16.30;99.90;;;;;;12513536;28;20056;-40
2021/10/02 20:48:57;;;;;;;4.25;2.05;;;16.40;99.90;;;;;;12515828;28;20048;-40
2021/10/02 20:55:00;;;;;;;4.57;2.10;;;16.70;99.90;;;;;;12511248;28;20103;-37
2021/10/02 21:01:09;;;;;;;3.50;1.90;;;16.60;99.90;;;;;;12515360;28;20064;-37
2021/10/02 21:07:14;;;;;;;4.55;2.30;;;16.50;99.90;;;;;;12512433;28;20084;-40
2021/10/02 21:13:18;;;;;;;3.90;2.35;;;16.60;99.90;;;;;;12510976;28;20106;-40
2021/10/02 21:19:20;;;;;;;4.82;2.10;;;16.70;99.90;;;;;;12510173;28;20098;-41
2021/10/02 21:25:22;;;;;;;4.13;2.65;;;16.80;99.90;;;;;;12511300;28;20118;-36
2021/10/02 21:31:25;;;;;;;3.40;2.40;;;16.80;99.90;;;;;;12501805;28;20094;-40
2021/10/02 21:37:28;;;;;;;4.87;2.50;;;16.80;99.90;;;;;;12464712;28;20064;-37
2021/10/02 21:43:35;;;;;;;6.63;2.28;;;16.70;99.90;;;;;;12465039;28;20300;-39
2021/10/02 21:49:37;;;;;;;4.35;2.47;;;16.50;99.90;;;;;;12462465;28;20057;-36
2021/10/02 21:55:40;;;;;;;5.47;2.25;;;16.40;99.90;;;;;;12508202;28;20053;-40
2021/10/02 22:01:42;;;;;;;6.37;2.40;;;16.20;99.90;;;;;;12494791;28;20049;-40
2021/10/02 22:07:46;;;;;;;4.63;2.85;;;16.20;99.90;;;;;;12456973;28;20049;-36
2021/10/02 22:13:48;;;;;;;4.30;2.47;;;16.30;99.90;;;;;;12493945;28;20049;-37
2021/10/02 22:19:50;;;;;;;7.80;2.60;;;16.20;99.90;;;;;;12511547;28;20364;-40
2021/10/02 22:25:54;;;;;;;5.63;2.85;;;16.30;99.90;;;;;;12465821;28;20041;-41
2021/10/02 22:31:56;;;;;;;5.80;3.17;;;16.20;99.90;;;;;;12461412;28;20111;-36
2021/10/02 22:37:58;;;;;;;6.05;2.92;;;16.20;99.90;;;;;;12470665;28;20132;-36
2021/10/02 22:44:00;;;;;;;5.60;3.00;;;16.30;99.90;;;;;;12470234;28;20061;-36
2021/10/02 22:50:02;;;;;;;5.95;2.90;;;16.40;99.90;;;;;;12473828;28;20053;-37
2021/10/02 22:56:06;;;;;;;6.28;2.65;;;16.40;99.90;;;;;;12518614;28;20819;-40
2021/10/02 23:02:08;;;;;;;4.72;3.10;;;16.30;99.90;;;;;;12504724;28;20126;-41
2021/10/02 23:08:10;;;;;;;6.60;2.78;;;16.50;99.90;;;;;;12473074;28;20415;-36
2021/10/02 23:14:13;;;;;;;5.63;2.55;;;16.60;99.90;;;;;;12467092;28;20491;-36
2021/10/02 23:20:21;;;;;;;4.28;2.65;;;16.70;99.90;;;;;;12471581;28;20049;-36
2021/10/02 23:26:25;;;;;;;4.55;2.65;;;16.80;99.90;;;;;;12518086;28;20103;-41
2021/10/02 23:32:30;;;;;;;4.68;2.58;;;17.00;99.90;;;;;;12497237;28;20041;-39
2021/10/02 23:38:32;;;;;;;5.85;2.80;;;17.20;99.90;;;;;;12469206;28;20122;-40
2021/10/02 23:44:35;;;;;;;4.10;2.88;;;17.20;99.90;;;;;;12504062;28;20056;-41
2021/10/02 23:50:45;;;;;;;6.68;2.85;;;17.20;99.90;;;;;;12510821;28;20111;-36
2021/10/02 23:56:55;;;;;;;4.25;2.70;;;17.20;99.90;;;;;;12471463;28;20469;-40
